createdAt,value
2022-10-19T00:01:08.805Z,9.80
2022-10-19T00:03:36.964Z,9.80
2022-10-19T00:06:25.148Z,9.80
2022-10-19T00:08:56.871Z,9.80
2022-10-19T00:11:24.372Z,9.80
2022-10-19T00:13:52.978Z,9.80
2022-10-19T00:16:21.151Z,9.70
2022-10-19T00:18:48.075Z,9.70
2022-10-19T00:21:17.812Z,9.70
2022-10-19T00:23:45.636Z,9.80
2022-10-19T00:26:13.300Z,9.80
2022-10-19T00:28:40.842Z,9.70
2022-10-19T00:31:11.162Z,9.70
2022-10-19T00:33:38.326Z,9.70
2022-10-19T00:36:06.330Z,9.70
2022-10-19T00:38:33.313Z,9.70
2022-10-19T00:41:00.202Z,9.70
2022-10-19T00:43:30.442Z,9.70
2022-10-19T00:45:57.382Z,9.60
2022-10-19T00:48:32.468Z,9.60
2022-10-19T00:51:00.956Z,9.60
2022-10-19T00:53:30.502Z,9.60
2022-10-19T00:55:58.462Z,9.50
2022-10-19T00:58:25.322Z,9.50
2022-10-19T01:00:52.787Z,9.50
2022-10-19T01:03:20.596Z,9.50
2022-10-19T01:05:48.048Z,9.50
2022-10-19T01:08:15.143Z,9.40
2022-10-19T01:11:02.819Z,9.40
2022-10-19T01:14:23.586Z,9.40
2022-10-19T01:17:08.085Z,9.40
2022-10-19T01:20:11.273Z,9.40
2022-10-19T01:22:56.244Z,9.40
2022-10-19T01:25:45.224Z,9.40
2022-10-19T01:28:58.013Z,9.30
2022-10-19T01:31:48.533Z,9.30
2022-10-19T01:34:18.125Z,9.30
2022-10-19T01:36:56.914Z,9.30
2022-10-19T01:39:44.228Z,9.30
2022-10-19T01:42:19.289Z,9.30
2022-10-19T01:44:54.364Z,9.30
2022-10-19T01:47:31.193Z,9.30
2022-10-19T01:50:16.152Z,9.30
2022-10-19T01:52:43.644Z,9.20
2022-10-19T01:55:13.659Z,9.20
2022-10-19T01:57:46.208Z,9.20
2022-10-19T02:00:16.155Z,9.20
2022-10-19T02:02:47.433Z,9.20
2022-10-19T02:05:17.280Z,9.20
2022-10-19T02:07:49.390Z,9.10
2022-10-19T02:10:16.337Z,9.10
2022-10-19T02:12:44.077Z,9.00
2022-10-19T02:15:15.799Z,9.00
2022-10-19T02:17:47.122Z,9.00
2022-10-19T02:20:15.690Z,8.90
2022-10-19T02:22:42.838Z,8.90
2022-10-19T02:25:10.560Z,8.80
2022-10-19T02:27:41.830Z,8.70
2022-10-19T02:30:11.546Z,8.70
2022-10-19T02:32:38.657Z,8.70
2022-10-19T02:35:06.195Z,8.70
2022-10-19T02:37:33.531Z,8.70
2022-10-19T02:40:01.283Z,8.70
2022-10-19T02:42:32.850Z,8.70
2022-10-19T02:45:09.407Z,8.70
2022-10-19T02:47:42.766Z,8.80
2022-10-19T02:50:11.071Z,8.70
2022-10-19T02:52:41.524Z,8.80
2022-10-19T02:55:09.178Z,8.70
2022-10-19T02:57:36.525Z,8.70
2022-10-19T03:00:08.505Z,8.70
2022-10-19T03:02:35.706Z,8.60
2022-10-19T03:05:03.103Z,8.60
2022-10-19T03:07:30.228Z,8.50
2022-10-19T03:09:57.080Z,8.50
2022-10-19T03:12:24.032Z,8.50
2022-10-19T03:14:50.891Z,8.50
2022-10-19T03:17:17.825Z,8.50
2022-10-19T03:19:45.069Z,8.50
2022-10-19T03:22:14.309Z,8.50
2022-10-19T03:24:41.227Z,8.40
2022-10-19T03:27:08.208Z,8.40
2022-10-19T03:29:35.148Z,8.40
2022-10-19T03:32:01.983Z,8.30
2022-10-19T03:34:28.890Z,8.30
2022-10-19T03:36:56.840Z,8.30
2022-10-19T03:39:23.654Z,8.20
2022-10-19T03:41:50.648Z,8.10
2022-10-19T03:44:17.642Z,8.00
2022-10-19T03:46:44.472Z,8.00
2022-10-19T03:49:12.211Z,7.90
2022-10-19T03:51:39.184Z,7.80
2022-10-19T03:54:08.748Z,7.80
2022-10-19T03:56:36.244Z,7.70
2022-10-19T03:59:05.157Z,7.60
2022-10-19T04:01:34.953Z,7.60
2022-10-19T04:04:04.562Z,7.50
2022-10-19T04:06:37.234Z,7.50
2022-10-19T04:09:06.136Z,7.50
2022-10-19T04:11:34.010Z,7.60
2022-10-19T04:14:01.731Z,7.60
2022-10-19T04:16:29.909Z,7.60
2022-10-19T04:18:57.262Z,7.70
2022-10-19T04:21:38.577Z,7.70
2022-10-19T04:24:14.660Z,7.70
2022-10-19T04:26:47.018Z,7.80
2022-10-19T04:29:15.208Z,7.80
2022-10-19T04:31:42.234Z,7.80
2022-10-19T04:34:09.253Z,7.80
2022-10-19T04:36:40.532Z,7.80
2022-10-19T04:39:15.325Z,7.70
2022-10-19T04:41:42.415Z,7.60
2022-10-19T04:44:11.961Z,7.50
2022-10-19T04:46:39.506Z,7.40
2022-10-19T04:49:07.281Z,7.30
2022-10-19T04:51:53.872Z,7.30
2022-10-19T04:54:36.301Z,7.20
2022-10-19T04:57:23.767Z,7.20
2022-10-19T05:00:35.063Z,7.20
2022-10-19T05:06:32.152Z,7.20
2022-10-19T05:10:04.981Z,7.20
2022-10-19T05:12:51.864Z,7.10
2022-10-19T05:16:51.888Z,7.10
2022-10-19T05:19:17.701Z,7.10
2022-10-19T05:21:45.049Z,7.10
2022-10-19T05:24:43.208Z,7.10
2022-10-19T05:30:04.066Z,7.00
2022-10-19T05:32:51.726Z,7.10
2022-10-19T05:38:16.607Z,7.10
2022-10-19T05:51:20.077Z,6.90
2022-10-19T05:54:00.066Z,7.00
2022-10-19T05:56:30.060Z,6.90
2022-10-19T06:03:04.775Z,7.00
2022-10-19T06:10:06.965Z,6.90
2022-10-19T06:49:37.570Z,9.30
2022-10-19T06:52:18.507Z,9.30
2022-10-19T06:58:20.485Z,9.00
2022-10-19T07:01:13.137Z,9.00
2022-10-19T07:12:46.920Z,8.10
2022-10-19T07:15:49.566Z,8.60
2022-10-19T07:18:40.943Z,8.60
2022-10-19T07:22:03.219Z,8.40
2022-10-19T07:24:35.319Z,7.90
2022-10-19T07:28:24.145Z,7.50
2022-10-19T07:30:44.758Z,7.50
2022-10-19T07:53:21.551Z,8.00
2022-10-19T08:33:11.377Z,16.20
2022-10-19T08:33:28.864Z,16.40
2022-10-19T08:37:19.674Z,16.50
2022-10-19T08:52:41.734Z,9.10
2022-10-19T08:55:30.906Z,8.40
2022-10-19T08:58:28.008Z,7.80
2022-10-19T09:01:13.646Z,7.30
2022-10-19T09:03:55.746Z,7.40
2022-10-19T09:06:35.205Z,7.70
2022-10-19T09:13:21.780Z,10.70
2022-10-19T09:16:47.713Z,10.10
2022-10-19T09:19:31.450Z,10.30
2022-10-19T09:25:26.336Z,8.50
2022-10-19T09:28:27.314Z,7.50
2022-10-19T09:31:21.940Z,7.10
2022-10-19T09:34:57.526Z,7.00
2022-10-19T09:37:27.419Z,7.10
2022-10-19T09:40:11.276Z,7.50
2022-10-19T09:42:40.402Z,8.20
2022-10-19T09:45:20.535Z,8.90
2022-10-19T09:48:14.880Z,10.80
2022-10-19T09:50:49.427Z,13.20
2022-10-19T09:53:25.515Z,13.40
2022-10-19T09:56:12.003Z,11.00
2022-10-19T09:58:50.254Z,9.40
2022-10-19T10:01:41.448Z,8.50
2022-10-19T10:04:24.533Z,9.00
2022-10-19T10:07:00.469Z,10.10
2022-10-19T10:09:31.375Z,12.30
2022-10-19T10:12:03.543Z,14.30
2022-10-19T10:14:35.601Z,16.20
2022-10-19T10:17:31.627Z,16.00
2022-10-19T10:20:01.379Z,18.30
2022-10-19T10:22:33.655Z,17.80
2022-10-19T10:25:01.485Z,15.80
2022-10-19T10:27:33.529Z,12.60
2022-10-19T10:30:28.200Z,11.10
2022-10-19T10:36:17.298Z,9.30
2022-10-19T10:38:50.504Z,9.20
2022-10-19T10:41:26.459Z,10.50
2022-10-19T10:44:04.619Z,12.80
2022-10-19T10:46:40.895Z,12.90
2022-10-19T10:49:23.709Z,11.10
2022-10-19T10:52:34.546Z,11.20
2022-10-19T10:55:20.925Z,12.10
2022-10-19T10:58:00.226Z,12.50
2022-10-19T11:00:50.478Z,12.60
2022-10-19T11:04:35.226Z,12.80
2022-10-19T11:06:54.828Z,13.00
2022-10-19T11:10:07.354Z,13.20
2022-10-19T11:14:13.318Z,13.50
2022-10-19T11:16:43.058Z,13.60
2022-10-19T11:20:37.253Z,11.60
2022-10-19T11:26:59.598Z,12.10
2022-10-19T11:29:49.784Z,13.30
2022-10-19T11:33:22.278Z,14.90
2022-10-19T11:39:39.355Z,14.80
2022-10-19T11:45:50.906Z,12.00
2022-10-19T11:52:07.843Z,12.60
2022-10-19T12:07:35.788Z,13.50
2022-10-19T12:10:19.955Z,13.40
2022-10-19T12:13:21.120Z,13.00
2022-10-19T12:18:52.118Z,12.00
2022-10-19T12:21:31.313Z,11.80
2022-10-19T12:24:06.479Z,12.50
2022-10-19T12:26:42.161Z,12.90
2022-10-19T12:29:34.151Z,13.10
2022-10-19T12:50:41.529Z,9.80
2022-10-19T12:56:07.013Z,9.90
2022-10-19T12:58:57.159Z,9.80
2022-10-19T13:01:37.215Z,9.70
2022-10-19T13:04:21.654Z,9.40
2022-10-19T13:07:00.775Z,9.40
2022-10-19T13:09:42.915Z,9.20
2022-10-19T13:12:23.547Z,8.90
2022-10-19T13:17:50.913Z,8.80
2022-10-19T13:20:28.913Z,8.70
2022-10-19T13:23:12.986Z,8.60
2022-10-19T13:25:42.332Z,8.60
2022-10-19T13:28:11.151Z,8.60
2022-10-19T13:30:39.389Z,8.60
2022-10-19T13:33:35.272Z,8.60
2022-10-19T13:36:05.381Z,8.70
2022-10-19T13:38:51.211Z,8.60
2022-10-19T13:41:45.388Z,8.70
2022-10-19T13:44:17.205Z,8.70
2022-10-19T13:46:59.394Z,8.70
2022-10-19T13:50:12.028Z,8.70
2022-10-19T13:53:03.705Z,8.70
2022-10-19T13:56:00.520Z,8.70
2022-10-19T13:58:48.753Z,8.80
2022-10-19T14:01:37.514Z,8.70
2022-10-19T14:04:47.128Z,8.70
2022-10-19T14:07:27.772Z,8.70
2022-10-19T14:10:32.660Z,8.60
2022-10-19T14:13:14.429Z,8.40
2022-10-19T14:15:55.232Z,8.40
2022-10-19T14:18:38.584Z,8.40
2022-10-19T14:21:10.566Z,8.40
2022-10-19T14:23:43.559Z,8.50
2022-10-19T14:26:24.955Z,8.40
2022-10-19T14:28:57.662Z,9.10
2022-10-19T14:31:38.065Z,8.20
2022-10-19T14:34:09.292Z,8.00
2022-10-19T14:36:45.505Z,7.90
2022-10-19T14:39:32.579Z,7.90
2022-10-19T14:42:07.085Z,7.80
2022-10-19T14:44:43.044Z,7.70
2022-10-19T14:47:27.226Z,7.70
2022-10-19T14:49:55.432Z,7.60
2022-10-19T14:52:35.476Z,7.60
2022-10-19T14:55:16.857Z,7.50
2022-10-19T14:57:49.971Z,7.50
2022-10-19T15:00:23.350Z,7.50
2022-10-19T15:03:07.114Z,7.40
2022-10-19T15:05:37.946Z,7.40
2022-10-19T15:08:15.623Z,7.30
2022-10-19T15:10:48.134Z,7.30
2022-10-19T15:13:27.089Z,7.20
2022-10-19T15:15:57.054Z,7.20
2022-10-19T15:18:48.297Z,7.20
2022-10-19T15:21:19.599Z,7.20
2022-10-19T15:23:52.786Z,7.30
2022-10-19T15:26:27.691Z,7.20
2022-10-19T15:29:08.339Z,7.30
2022-10-19T15:31:36.236Z,7.30
2022-10-19T15:34:05.513Z,7.40
2022-10-19T15:36:33.502Z,7.40
2022-10-19T15:39:18.344Z,7.50
2022-10-19T15:41:55.519Z,7.50
2022-10-19T15:44:43.586Z,7.40
2022-10-19T15:47:21.524Z,7.30
2022-10-19T15:49:53.363Z,7.30
2022-10-19T15:52:23.845Z,7.30
2022-10-19T15:54:57.770Z,7.30
2022-10-19T15:57:37.832Z,7.40
2022-10-19T16:00:13.938Z,7.50
2022-10-19T16:02:48.369Z,7.60
2022-10-19T16:05:18.814Z,7.60
2022-10-19T16:07:47.617Z,7.50
2022-10-19T16:10:22.313Z,7.50
2022-10-19T16:12:53.997Z,7.40
2022-10-19T16:15:32.534Z,7.40
2022-10-19T16:18:01.176Z,7.40
2022-10-19T16:20:30.158Z,7.30
2022-10-19T16:23:01.215Z,7.30
2022-10-19T16:25:29.096Z,7.30
2022-10-19T16:28:04.920Z,7.30
2022-10-19T16:30:32.819Z,7.30
2022-10-19T16:33:00.350Z,7.30
2022-10-19T16:35:27.693Z,7.30
2022-10-19T16:40:30.055Z,7.30
2022-10-19T16:42:59.450Z,7.30
2022-10-19T16:45:41.956Z,7.20
2022-10-19T16:48:15.107Z,7.20
2022-10-19T16:53:18.115Z,7.20
2022-10-19T16:55:45.810Z,7.30
2022-10-19T16:58:13.738Z,7.40
2022-10-19T17:00:48.187Z,7.50
2022-10-19T17:03:15.550Z,7.50
2022-10-19T17:05:44.159Z,7.50
2022-10-19T17:08:12.103Z,7.50
2022-10-19T17:10:39.773Z,7.60
2022-10-19T17:13:07.392Z,7.60
2022-10-19T17:15:43.407Z,7.60
2022-10-19T17:18:22.885Z,7.60
2022-10-19T17:20:53.214Z,7.70
2022-10-19T17:23:21.599Z,7.70
2022-10-19T17:25:49.307Z,7.70
2022-10-19T17:28:16.601Z,7.80
2022-10-19T17:30:44.604Z,7.80
2022-10-19T17:33:14.212Z,7.60
2022-10-19T17:35:44.486Z,7.60
2022-10-19T17:38:11.856Z,7.50
2022-10-19T17:40:39.572Z,7.50
2022-10-19T17:43:07.216Z,7.40
2022-10-19T17:45:34.972Z,7.30
2022-10-19T17:48:02.630Z,7.20
2022-10-19T17:50:29.953Z,7.20
2022-10-19T17:52:59.079Z,7.30
2022-10-19T17:55:27.236Z,7.30
2022-10-19T17:57:54.315Z,7.20
2022-10-19T18:00:21.529Z,7.20
2022-10-19T18:02:49.289Z,7.20
2022-10-19T18:05:17.122Z,7.20
2022-10-19T18:07:45.006Z,7.20
2022-10-19T18:10:13.578Z,7.20
2022-10-19T18:12:40.905Z,7.10
2022-10-19T18:15:08.700Z,7.00
2022-10-19T18:17:36.690Z,7.00
2022-10-19T18:20:04.443Z,7.10
2022-10-19T18:22:31.825Z,7.20
2022-10-19T18:25:01.417Z,7.30
2022-10-19T18:27:28.587Z,7.30
2022-10-19T18:29:55.942Z,7.30
2022-10-19T18:32:23.061Z,7.20
2022-10-19T18:34:50.290Z,7.30
2022-10-19T18:37:17.649Z,7.30
2022-10-19T18:39:44.839Z,7.30
2022-10-19T18:42:13.051Z,7.20
2022-10-19T18:44:40.395Z,7.30
2022-10-19T18:47:07.814Z,7.50
2022-10-19T18:49:34.782Z,7.50
2022-10-19T18:52:01.691Z,7.60
2022-10-19T18:54:28.552Z,7.60
2022-10-19T18:56:55.843Z,7.60
2022-10-19T18:59:23.245Z,7.60
2022-10-19T19:01:50.635Z,7.60
2022-10-19T19:04:18.164Z,7.60
2022-10-19T19:06:45.313Z,7.60
2022-10-19T19:09:13.118Z,7.50
2022-10-19T19:11:41.631Z,7.50
2022-10-19T19:14:13.533Z,7.60
2022-10-19T19:16:41.733Z,7.50
2022-10-19T19:19:10.200Z,7.40
2022-10-19T19:21:37.914Z,7.30
2022-10-19T19:24:07.050Z,7.30
2022-10-19T19:26:38.765Z,7.20
2022-10-19T19:29:06.345Z,7.20
2022-10-19T19:31:33.881Z,7.00
2022-10-19T19:34:02.061Z,6.90
2022-10-19T19:36:29.561Z,6.80
2022-10-19T19:38:59.368Z,6.70
2022-10-19T19:41:26.387Z,6.80
2022-10-19T19:43:53.357Z,6.70
2022-10-19T19:46:20.671Z,6.70
2022-10-19T19:48:48.577Z,6.70
2022-10-19T19:51:18.625Z,6.60
2022-10-19T19:53:47.214Z,6.60
2022-10-19T19:56:15.370Z,6.50
2022-10-19T19:58:43.989Z,6.60
2022-10-19T20:01:12.525Z,6.60
2022-10-19T20:03:41.553Z,6.60
2022-10-19T20:06:09.418Z,6.70
2022-10-19T20:08:37.103Z,6.70
2022-10-19T20:11:07.491Z,6.70
2022-10-19T20:13:35.754Z,6.60
2022-10-19T20:16:15.307Z,6.60
2022-10-19T20:18:45.638Z,6.50
2022-10-19T20:21:13.498Z,6.40
2022-10-19T20:23:41.013Z,6.30
2022-10-19T20:26:21.682Z,6.10
2022-10-19T20:28:49.601Z,6.00
2022-10-19T20:31:17.163Z,5.90
2022-10-19T20:33:45.097Z,5.80
2022-10-19T20:36:20.643Z,5.70
2022-10-19T20:38:53.204Z,5.60
2022-10-19T20:41:22.254Z,5.50
2022-10-19T20:43:50.038Z,5.40
2022-10-19T20:46:22.520Z,5.30
2022-10-19T20:48:50.545Z,5.30
2022-10-19T20:51:20.241Z,5.20
2022-10-19T20:53:49.636Z,5.10
2022-10-19T20:56:19.723Z,5.10
2022-10-19T20:58:47.293Z,5.00
2022-10-19T21:01:18.458Z,5.10
2022-10-19T21:03:52.479Z,4.90
2022-10-19T21:06:21.142Z,4.80
2022-10-19T21:08:49.313Z,4.80
2022-10-19T21:11:34.726Z,4.80
2022-10-19T21:14:03.983Z,4.90
2022-10-19T21:16:33.724Z,4.80
2022-10-19T21:19:02.194Z,4.80
2022-10-19T21:21:32.522Z,4.80
2022-10-19T21:24:04.659Z,4.80
2022-10-19T21:26:33.753Z,4.80
2022-10-19T21:29:01.715Z,4.90
2022-10-19T21:31:29.271Z,5.10
2022-10-19T21:33:56.487Z,5.20
2022-10-19T21:36:27.742Z,5.30
2022-10-19T21:38:55.123Z,5.50
2022-10-19T21:41:26.168Z,5.50
2022-10-19T21:43:54.924Z,5.50
2022-10-19T21:46:23.060Z,5.60
2022-10-19T21:48:51.209Z,5.60
2022-10-19T21:51:32.302Z,5.60
2022-10-19T21:53:59.906Z,5.40
2022-10-19T21:56:28.128Z,5.30
2022-10-19T21:58:55.690Z,5.30
2022-10-19T22:01:26.091Z,5.20
2022-10-19T22:04:13.796Z,5.20
2022-10-19T22:06:40.853Z,5.10
2022-10-19T22:09:09.823Z,5.00
2022-10-19T22:11:37.014Z,4.90
2022-10-19T22:14:05.243Z,4.70
2022-10-19T22:16:35.117Z,4.60
2022-10-19T22:19:02.600Z,4.50
2022-10-19T22:21:31.597Z,4.40
2022-10-19T22:24:07.307Z,4.30
2022-10-19T22:26:40.077Z,4.20
2022-10-19T22:29:07.725Z,4.10
2022-10-19T22:31:35.584Z,4.10
2022-10-19T22:34:13.890Z,4.00
2022-10-19T22:36:40.887Z,4.00
2022-10-19T22:39:08.543Z,3.90
2022-10-19T22:41:35.810Z,4.00
2022-10-19T22:44:02.938Z,3.90
2022-10-19T22:46:29.861Z,3.90
2022-10-19T22:48:56.833Z,3.90
2022-10-19T22:51:23.734Z,4.00
2022-10-19T22:53:50.550Z,4.00
2022-10-19T22:56:17.399Z,4.10
2022-10-19T22:58:44.268Z,4.10
2022-10-19T23:01:13.264Z,4.00
2022-10-19T23:03:40.608Z,4.00
2022-10-19T23:06:09.823Z,4.00
2022-10-19T23:08:37.181Z,3.90
2022-10-19T23:11:04.293Z,3.90
2022-10-19T23:13:31.211Z,3.80
2022-10-19T23:15:58.244Z,3.80
2022-10-19T23:18:25.248Z,3.70
2022-10-19T23:21:02.302Z,3.70
2022-10-19T23:23:30.391Z,3.70
2022-10-19T23:26:15.800Z,3.70
2022-10-19T23:28:45.079Z,3.70
2022-10-19T23:31:14.991Z,3.70
2022-10-19T23:33:42.941Z,3.70
2022-10-19T23:36:09.876Z,3.70
2022-10-19T23:38:36.764Z,3.70
2022-10-19T23:41:03.848Z,3.80
2022-10-19T23:43:30.802Z,3.80
2022-10-19T23:45:57.668Z,3.90
2022-10-19T23:49:20.788Z,3.90
2022-10-19T23:51:47.652Z,3.90
2022-10-19T23:54:14.647Z,3.80
2022-10-19T23:56:41.573Z,3.80
2022-10-19T23:59:09.836Z,3.80
